createdAt,value
2018-06-30T00:00:25.205Z,97910.43
2018-06-30T00:02:53.714Z,97913.63
2018-06-30T00:05:22.863Z,97910.17
2018-06-30T00:07:52.415Z,97908.33
2018-06-30T00:10:29.747Z,97905.83
2018-06-30T00:13:00.178Z,97904.33
2018-06-30T00:15:29.334Z,97906.61
2018-06-30T00:17:58.610Z,97904.77
2018-06-30T00:20:27.718Z,97901.41
2018-06-30T00:22:56.975Z,97898.22
2018-06-30T00:25:26.044Z,97898.22
2018-06-30T00:27:56.614Z,97902.30
2018-06-30T00:30:26.971Z,97898.69
2018-06-30T00:32:56.842Z,97901.01
2018-06-30T00:35:25.939Z,97897.45
2018-06-30T00:37:55.394Z,97897.90
2018-06-30T00:40:25.003Z,97897.17
2018-06-30T00:42:54.975Z,97899.99
2018-06-30T00:45:23.722Z,97902.92
2018-06-30T00:47:53.069Z,97904.11
2018-06-30T00:50:22.174Z,97899.02
2018-06-30T00:52:51.291Z,97900.21
2018-06-30T00:55:20.459Z,97894.97
2018-06-30T00:57:49.550Z,97893.59
2018-06-30T01:00:18.638Z,97892.20
2018-06-30T01:02:47.767Z,97893.36
2018-06-30T01:05:16.906Z,97898.85
2018-06-30T01:07:46.259Z,97897.67
2018-06-30T01:10:15.393Z,97898.63
2018-06-30T01:12:44.551Z,97895.84
2018-06-30T01:15:14.350Z,97895.02
2018-06-30T01:17:43.614Z,97895.42
2018-06-30T01:20:13.290Z,97892.44
2018-06-30T01:22:42.382Z,97891.61
2018-06-30T01:25:11.458Z,97892.80
2018-06-30T01:27:40.587Z,97896.39
2018-06-30T01:30:11.171Z,97895.07
2018-06-30T01:32:41.109Z,97894.33
2018-06-30T01:35:11.004Z,97892.94
2018-06-30T01:37:40.918Z,97895.00
2018-06-30T01:40:10.038Z,97888.41
2018-06-30T01:42:39.183Z,97888.12
2018-06-30T01:45:08.367Z,97880.66
2018-06-30T01:47:37.504Z,97882.15
2018-06-30T01:50:06.611Z,97880.04
2018-06-30T01:52:35.661Z,97878.98
2018-06-30T01:55:04.765Z,97880.91
2018-06-30T01:57:33.866Z,97882.27
2018-06-30T02:00:03.008Z,97876.38
2018-06-30T02:02:32.155Z,97877.16
2018-06-30T02:05:01.254Z,97873.70
2018-06-30T02:07:30.502Z,97873.66
2018-06-30T02:09:59.647Z,97872.81
2018-06-30T02:12:28.757Z,97871.92
2018-06-30T02:14:57.883Z,97876.38
2018-06-30T02:17:26.977Z,97874.64
2018-06-30T02:19:56.137Z,97877.98
2018-06-30T02:22:25.298Z,97878.98
2018-06-30T02:24:54.416Z,97869.67
2018-06-30T02:27:23.522Z,97878.34
2018-06-30T02:29:52.650Z,97882.20
2018-06-30T02:32:21.742Z,97876.45
2018-06-30T02:34:51.830Z,97874.66
2018-06-30T02:37:21.450Z,97881.62
2018-06-30T02:39:50.558Z,97879.23
2018-06-30T02:42:19.682Z,97877.44
2018-06-30T02:44:48.766Z,97875.66
2018-06-30T02:47:17.866Z,97879.62
2018-06-30T02:49:47.006Z,97878.78
2018-06-30T02:52:16.142Z,97871.66
2018-06-30T02:54:45.314Z,97867.17
2018-06-30T02:57:14.438Z,97866.52
2018-06-30T02:59:43.530Z,97864.84
2018-06-30T03:02:12.626Z,97867.89
2018-06-30T03:04:41.759Z,97871.71
2018-06-30T03:07:10.855Z,97879.41
2018-06-30T03:09:39.975Z,97882.63
2018-06-30T03:12:09.962Z,97881.80
2018-06-30T03:14:39.288Z,97870.06
2018-06-30T03:17:08.470Z,97872.43
2018-06-30T03:19:37.600Z,97877.27
2018-06-30T03:22:06.714Z,97874.48
2018-06-30T03:24:35.841Z,97872.43
2018-06-30T03:27:05.259Z,97875.20
2018-06-30T03:29:34.354Z,97875.93
2018-06-30T03:32:04.239Z,97877.06
2018-06-30T03:34:33.370Z,97870.98
2018-06-30T03:37:02.458Z,97880.36
2018-06-30T03:39:31.618Z,97876.39
2018-06-30T03:42:00.754Z,97878.12
2018-06-30T03:44:29.866Z,97875.27
2018-06-30T03:46:58.986Z,97875.20
2018-06-30T03:49:28.259Z,97877.95
2018-06-30T03:51:57.467Z,97879.11
2018-06-30T03:54:26.681Z,97881.23
2018-06-30T03:56:55.855Z,97877.77
2018-06-30T03:59:25.160Z,97877.94
2018-06-30T04:01:54.348Z,97883.02
2018-06-30T04:04:23.507Z,97885.30
2018-06-30T04:06:52.666Z,97890.98
2018-06-30T04:09:21.780Z,97891.10
2018-06-30T04:11:50.919Z,97888.26
2018-06-30T04:14:20.063Z,97888.34
2018-06-30T04:16:49.179Z,97882.52
2018-06-30T04:19:18.302Z,97889.48
2018-06-30T04:21:48.052Z,97887.39
2018-06-30T04:24:17.193Z,97883.61
2018-06-30T04:26:46.329Z,97883.91
2018-06-30T04:29:15.464Z,97884.97
2018-06-30T04:31:44.829Z,97883.11
2018-06-30T04:34:13.960Z,97888.14
2018-06-30T04:36:43.102Z,97894.37
2018-06-30T04:39:12.362Z,97893.66
2018-06-30T04:41:42.107Z,97895.47
2018-06-30T04:44:11.983Z,97897.28
2018-06-30T04:46:41.907Z,97898.80
2018-06-30T04:49:12.047Z,97899.58
2018-06-30T04:51:41.340Z,97903.20
2018-06-30T04:54:11.032Z,97897.20
2018-06-30T04:56:40.946Z,97901.87
2018-06-30T04:59:10.880Z,97903.39
2018-06-30T05:01:40.847Z,97899.41
2018-06-30T05:04:10.389Z,97901.79
2018-06-30T05:06:40.619Z,97897.23
2018-06-30T05:09:09.931Z,97898.45
2018-06-30T05:11:39.471Z,97894.67
2018-06-30T05:14:09.323Z,97900.21
2018-06-30T05:16:38.462Z,97896.41
2018-06-30T05:19:07.558Z,97901.92
2018-06-30T05:21:36.678Z,97897.08
2018-06-30T05:24:05.840Z,97904.70
2018-06-30T05:26:34.935Z,97897.52
2018-06-30T05:29:04.602Z,97891.83
2018-06-30T05:31:34.126Z,97892.72
2018-06-30T05:34:03.290Z,97892.30
2018-06-30T05:36:32.879Z,97893.30
2018-06-30T05:39:02.063Z,97892.97
2018-06-30T05:41:31.171Z,97889.25
2018-06-30T05:44:00.326Z,97890.37
2018-06-30T05:46:29.530Z,97887.25
2018-06-30T05:48:58.782Z,97884.53
2018-06-30T05:51:27.925Z,97891.39
2018-06-30T05:53:57.087Z,97887.38
2018-06-30T05:56:26.972Z,97887.25
2018-06-30T05:58:56.058Z,97894.38
2018-06-30T06:01:25.205Z,97897.15
2018-06-30T06:03:54.332Z,97887.28
2018-06-30T06:06:23.458Z,97886.59
2018-06-30T06:08:52.615Z,97882.81
2018-06-30T06:11:21.742Z,97891.10
2018-06-30T06:13:50.848Z,97887.64
2018-06-30T06:16:19.982Z,97894.53
2018-06-30T06:18:49.159Z,97892.16
2018-06-30T06:21:18.879Z,97894.83
2018-06-30T06:23:48.172Z,97895.74
2018-06-30T06:26:17.283Z,97902.92
2018-06-30T06:28:46.419Z,97901.33
2018-06-30T06:31:15.522Z,97904.25
2018-06-30T06:33:44.634Z,97911.38
2018-06-30T06:36:13.774Z,97908.59
2018-06-30T06:38:43.091Z,97907.04
2018-06-30T06:41:12.522Z,97911.72
2018-06-30T06:43:41.798Z,97903.95
2018-06-30T06:46:12.015Z,97897.37
2018-06-30T06:48:41.316Z,97901.44
2018-06-30T06:51:10.575Z,97898.58
2018-06-30T06:53:40.651Z,97895.27
2018-06-30T06:56:10.466Z,97890.69
2018-06-30T06:58:40.408Z,97890.16
2018-06-30T07:01:10.382Z,97889.74
2018-06-30T07:03:40.202Z,97892.16
2018-06-30T07:06:11.960Z,97889.98
2018-06-30T07:08:42.831Z,97894.92
2018-06-30T07:11:12.586Z,97893.92
2018-06-30T07:13:41.906Z,97892.95
2018-06-30T07:16:11.742Z,97896.21
2018-06-30T07:18:41.528Z,97889.41
2018-06-30T07:21:11.082Z,97884.08
2018-06-30T07:23:40.507Z,97891.89
2018-06-30T07:26:10.056Z,97897.70
2018-06-30T07:28:39.551Z,97893.47
2018-06-30T07:31:08.902Z,97890.88
2018-06-30T07:33:38.239Z,97889.70
2018-06-30T07:36:07.677Z,97887.30
2018-06-30T07:38:37.546Z,97893.38
2018-06-30T07:41:07.611Z,97891.97
2018-06-30T07:43:37.299Z,97899.55
2018-06-30T07:46:06.723Z,97887.28
2018-06-30T07:48:36.329Z,97885.71
2018-06-30T07:51:05.723Z,97886.84
2018-06-30T07:53:35.025Z,97885.99
2018-06-30T07:56:04.828Z,97888.19
2018-06-30T07:58:34.514Z,97890.10
2018-06-30T08:01:03.638Z,97887.53
2018-06-30T08:03:32.774Z,97881.90
2018-06-30T08:06:01.891Z,97880.45
2018-06-30T08:08:30.991Z,97880.46
2018-06-30T08:11:00.127Z,97875.38
2018-06-30T08:13:29.243Z,97880.36
2018-06-30T08:15:58.346Z,97878.60
2018-06-30T08:18:28.257Z,97878.31
2018-06-30T08:20:58.270Z,97878.20
2018-06-30T08:23:27.742Z,97870.44
2018-06-30T08:25:57.262Z,97874.12
2018-06-30T08:28:26.652Z,97882.75
2018-06-30T08:30:55.810Z,97874.41
2018-06-30T08:33:25.322Z,97873.64
2018-06-30T08:35:54.479Z,97872.60
2018-06-30T08:38:23.653Z,97872.05
2018-06-30T08:40:52.780Z,97876.64
2018-06-30T08:43:21.893Z,97874.20
2018-06-30T08:45:51.775Z,97879.09
2018-06-30T08:48:20.882Z,97868.58
2018-06-30T08:50:50.043Z,97878.89
2018-06-30T08:53:19.190Z,97871.54
2018-06-30T08:55:48.283Z,97872.73
2018-06-30T08:58:18.791Z,97866.69
2018-06-30T09:00:48.215Z,97867.36
2018-06-30T09:03:17.271Z,97869.19
2018-06-30T09:05:46.381Z,97864.32
2018-06-30T09:08:15.522Z,97863.95
2018-06-30T09:10:44.722Z,97867.80
2018-06-30T09:13:13.739Z,97865.66
2018-06-30T09:15:42.894Z,97860.94
2018-06-30T09:18:11.991Z,97854.78
2018-06-30T09:20:41.090Z,97863.09
2018-06-30T09:23:10.210Z,97863.52
2018-06-30T09:25:39.310Z,97862.14
2018-06-30T09:28:08.409Z,97860.03
2018-06-30T09:30:37.558Z,97859.77
2018-06-30T09:33:06.675Z,97853.35
2018-06-30T09:35:36.725Z,97853.70
2018-06-30T09:38:06.380Z,97855.99
2018-06-30T09:40:36.366Z,97856.80
2018-06-30T09:43:05.646Z,97851.03
2018-06-30T09:45:35.431Z,97852.64
2018-06-30T09:48:05.166Z,97860.45
2018-06-30T09:50:34.443Z,97863.17
2018-06-30T09:53:04.316Z,97855.67
2018-06-30T09:55:33.900Z,97856.31
2018-06-30T09:58:03.351Z,97858.22
2018-06-30T10:00:38.462Z,97852.59
2018-06-30T10:03:08.458Z,97847.89
2018-06-30T10:05:37.824Z,97855.34
2018-06-30T10:08:07.225Z,97847.74
2018-06-30T10:10:36.539Z,97847.18
2018-06-30T10:13:06.041Z,97843.56
2018-06-30T10:15:35.711Z,97838.95
2018-06-30T10:18:05.842Z,97848.28
2018-06-30T10:20:35.089Z,97851.39
2018-06-30T10:23:04.366Z,97847.66
2018-06-30T10:25:34.166Z,97841.05
2018-06-30T10:28:03.774Z,97837.84
2018-06-30T10:30:33.070Z,97843.62
2018-06-30T10:33:02.694Z,97836.35
2018-06-30T10:35:32.035Z,97833.78
2018-06-30T10:38:01.947Z,97832.44
2018-06-30T10:40:31.058Z,97822.41
2018-06-30T10:43:00.235Z,97825.25
2018-06-30T10:45:30.038Z,97831.86
2018-06-30T10:47:59.145Z,97828.16
2018-06-30T10:50:28.963Z,97830.05
2018-06-30T10:52:58.111Z,97815.60
2018-06-30T10:55:27.280Z,97821.70
2018-06-30T10:57:56.386Z,97816.39
2018-06-30T11:00:25.629Z,97819.03
2018-06-30T11:02:54.634Z,97814.78
2018-06-30T11:05:23.800Z,97811.85
2018-06-30T11:07:53.202Z,97817.09
2018-06-30T11:10:22.309Z,97810.30
2018-06-30T11:12:51.926Z,97814.92
2018-06-30T11:15:21.011Z,97818.23
2018-06-30T11:17:50.979Z,97814.07
2018-06-30T11:20:20.067Z,97811.27
2018-06-30T11:22:49.154Z,97808.53
2018-06-30T11:25:18.291Z,97810.93
2018-06-30T11:27:47.410Z,97795.55
2018-06-30T11:30:16.567Z,97806.59
2018-06-30T11:32:45.712Z,97793.30
2018-06-30T11:35:14.787Z,97799.25
2018-06-30T11:37:43.890Z,97796.14
2018-06-30T11:40:13.521Z,97790.71
2018-06-30T11:42:42.971Z,97789.13
2018-06-30T11:45:12.759Z,97784.46
2018-06-30T11:47:42.106Z,97781.95
2018-06-30T11:50:11.879Z,97782.74
2018-06-30T11:52:41.196Z,97786.55
2018-06-30T11:55:10.330Z,97783.84
2018-06-30T11:57:39.420Z,97774.03
2018-06-30T12:00:09.642Z,97775.42
2018-06-30T12:02:39.750Z,97786.52
2018-06-30T12:05:09.162Z,97773.81
2018-06-30T12:07:38.259Z,97777.17
2018-06-30T12:10:07.439Z,97771.94
2018-06-30T12:12:36.678Z,97777.88
2018-06-30T12:15:06.475Z,97777.76
2018-06-30T12:17:35.607Z,97774.51
2018-06-30T12:20:05.067Z,97761.16
2018-06-30T12:22:34.496Z,97771.46
2018-06-30T12:25:03.636Z,97768.80
2018-06-30T12:27:32.722Z,97762.28
2018-06-30T12:30:01.828Z,97761.64
2018-06-30T12:32:31.538Z,97764.16
2018-06-30T12:35:00.659Z,97758.05
2018-06-30T12:37:29.762Z,97762.56
2018-06-30T12:39:59.274Z,97753.14
2018-06-30T12:42:28.744Z,97758.66
2018-06-30T12:44:58.408Z,97760.22
2018-06-30T12:47:28.344Z,97752.97
2018-06-30T12:49:57.798Z,97763.07
2018-06-30T12:52:27.041Z,97764.71
2018-06-30T12:54:56.364Z,97759.86
2018-06-30T12:57:25.447Z,97755.43
2018-06-30T12:59:55.305Z,97758.43
2018-06-30T13:02:24.999Z,97756.99
2018-06-30T13:04:55.702Z,97747.28
2018-06-30T13:07:24.814Z,97746.28
2018-06-30T13:09:53.923Z,97749.09
2018-06-30T13:12:24.006Z,97751.52
2018-06-30T13:14:53.091Z,97732.98
2018-06-30T13:17:22.167Z,97730.76
2018-06-30T13:19:51.309Z,97739.81
2018-06-30T13:22:21.434Z,97736.80
2018-06-30T13:24:50.976Z,97742.48
2018-06-30T13:27:20.970Z,97740.56
2018-06-30T13:29:50.746Z,97726.98
2018-06-30T13:32:21.027Z,97730.88
2018-06-30T13:34:50.442Z,97720.11
2018-06-30T13:37:19.600Z,97729.48
2018-06-30T13:39:48.691Z,97742.94
2018-06-30T13:42:18.656Z,97736.86
2018-06-30T13:44:48.730Z,97734.41
2018-06-30T13:47:17.834Z,97726.38
2018-06-30T13:49:46.942Z,97726.46
2018-06-30T13:52:16.102Z,97724.67
2018-06-30T13:54:47.368Z,97725.27
2018-06-30T13:57:17.766Z,97723.63
2018-06-30T13:59:47.126Z,97712.03
2018-06-30T14:02:16.233Z,97726.20
2018-06-30T14:04:45.470Z,97716.69
2018-06-30T14:07:15.046Z,97716.75
2018-06-30T14:09:44.133Z,97711.52
2018-06-30T14:12:13.402Z,97716.80
2018-06-30T14:14:42.558Z,97714.97
2018-06-30T14:17:11.692Z,97712.44
2018-06-30T14:19:40.818Z,97712.16
2018-06-30T14:22:10.683Z,97707.16
2018-06-30T14:24:39.792Z,97708.36
2018-06-30T14:27:08.938Z,97701.00
2018-06-30T14:29:38.737Z,97706.08
2018-06-30T14:32:07.958Z,97697.45
2018-06-30T14:34:37.066Z,97696.88
2018-06-30T14:37:06.180Z,97698.13
2018-06-30T14:39:35.790Z,97696.87
2018-06-30T14:42:05.146Z,97708.53
2018-06-30T14:44:34.459Z,97695.72
2018-06-30T14:47:03.733Z,97697.31
2018-06-30T14:49:33.240Z,97696.86
2018-06-30T14:52:03.659Z,97698.63
2018-06-30T14:54:32.919Z,97696.38
2018-06-30T14:57:02.095Z,97692.94
2018-06-30T14:59:31.202Z,97698.02
2018-06-30T15:02:00.366Z,97703.17
2018-06-30T15:04:29.439Z,97692.71
2018-06-30T15:06:58.598Z,97697.73
2018-06-30T15:09:28.387Z,97696.88
2018-06-30T15:11:57.497Z,97700.00
2018-06-30T15:14:26.619Z,97700.28
2018-06-30T15:16:55.714Z,97704.45
2018-06-30T15:19:24.799Z,97695.00
2018-06-30T15:21:53.971Z,97703.91
2018-06-30T15:24:23.763Z,97697.84
2018-06-30T15:26:52.886Z,97703.80
2018-06-30T15:29:22.026Z,97700.36
2018-06-30T15:31:51.143Z,97699.95
2018-06-30T15:34:20.223Z,97702.23
2018-06-30T15:36:49.347Z,97699.23
2018-06-30T15:39:18.472Z,97690.28
2018-06-30T15:41:47.602Z,97700.36
2018-06-30T15:44:16.723Z,97695.30
2018-06-30T15:46:46.436Z,97707.41
2018-06-30T15:49:15.923Z,97701.03
2018-06-30T15:51:45.400Z,97701.92
2018-06-30T15:54:14.546Z,97707.52
2018-06-30T15:56:43.741Z,97706.73
2018-06-30T15:59:13.232Z,97708.50
2018-06-30T16:01:43.246Z,97705.70
2018-06-30T16:04:13.181Z,97710.52
2018-06-30T16:06:42.505Z,97703.58
2018-06-30T16:09:12.438Z,97705.83
2018-06-30T16:11:41.782Z,97718.62
2018-06-30T16:14:10.975Z,97720.99
2018-06-30T16:16:40.362Z,97716.77
2018-06-30T16:19:09.467Z,97719.08
2018-06-30T16:21:39.321Z,97711.70
2018-06-30T16:24:08.409Z,97709.81
2018-06-30T16:26:37.506Z,97712.20
2018-06-30T16:29:06.614Z,97711.50
2018-06-30T16:31:35.854Z,97709.05
2018-06-30T16:34:05.249Z,97716.40
2018-06-30T16:36:34.687Z,97708.95
2018-06-30T16:39:06.690Z,97710.23
2018-06-30T16:41:36.594Z,97714.52
2018-06-30T16:44:05.970Z,97715.29
2018-06-30T16:46:35.622Z,97715.19
2018-06-30T16:49:04.942Z,97720.93
2018-06-30T16:51:34.214Z,97714.63
2018-06-30T16:54:04.176Z,97728.17
2018-06-30T16:56:33.282Z,97722.56
2018-06-30T16:59:03.178Z,97715.50
2018-06-30T17:01:32.280Z,97708.08
2018-06-30T17:04:01.859Z,97709.83
2018-06-30T17:06:31.584Z,97707.48
2018-06-30T17:09:00.670Z,97709.61
2018-06-30T17:11:29.795Z,97711.59
2018-06-30T17:13:58.862Z,97706.36
2018-06-30T17:16:28.039Z,97704.81
2018-06-30T17:18:57.211Z,97703.83
2018-06-30T17:21:26.320Z,97721.79
2018-06-30T17:23:55.430Z,97712.20
2018-06-30T17:26:24.919Z,97720.05
2018-06-30T17:28:54.722Z,97711.39
2018-06-30T17:31:24.234Z,97711.38
2018-06-30T17:33:53.366Z,97717.96
2018-06-30T17:36:22.466Z,97716.73
2018-06-30T17:38:52.342Z,97720.69
2018-06-30T17:41:22.578Z,97713.45
2018-06-30T17:43:51.905Z,97714.23
2018-06-30T17:46:21.299Z,97720.23
2018-06-30T17:48:50.450Z,97723.83
2018-06-30T17:51:20.289Z,97714.28
2018-06-30T17:53:49.511Z,97720.11
2018-06-30T17:56:18.640Z,97714.20
2018-06-30T17:58:47.770Z,97721.27
2018-06-30T18:01:16.882Z,97722.83
2018-06-30T18:03:46.018Z,97720.06
2018-06-30T18:06:15.414Z,97723.20
2018-06-30T18:08:44.619Z,97723.01
2018-06-30T18:11:14.200Z,97728.77
2018-06-30T18:13:43.726Z,97723.83
2018-06-30T18:16:12.990Z,97732.52
2018-06-30T18:18:43.614Z,97732.47
2018-06-30T18:21:13.142Z,97733.67
2018-06-30T18:23:42.890Z,97739.56
2018-06-30T18:26:12.017Z,97740.28
2018-06-30T18:28:41.864Z,97738.34
2018-06-30T18:31:11.003Z,97746.34
2018-06-30T18:33:40.145Z,97753.77
2018-06-30T18:36:09.908Z,97753.15
2018-06-30T18:38:39.054Z,97755.27
2018-06-30T18:41:08.184Z,97756.88
2018-06-30T18:43:37.290Z,97761.16
2018-06-30T18:46:07.151Z,97759.56
2018-06-30T18:48:36.309Z,97758.39
2018-06-30T18:51:06.127Z,97759.47
2018-06-30T18:53:35.699Z,97758.90
2018-06-30T18:56:05.743Z,97760.65
2018-06-30T18:58:37.851Z,97762.05
2018-06-30T19:01:07.026Z,97766.81
2018-06-30T19:03:36.204Z,97766.58
2018-06-30T19:06:06.410Z,97760.59
2018-06-30T19:08:36.184Z,97766.07
2018-06-30T19:11:05.603Z,97766.50
2018-06-30T19:13:34.739Z,97769.11
2018-06-30T19:16:04.983Z,97779.58
2018-06-30T19:18:34.586Z,97775.91
2018-06-30T19:21:04.170Z,97778.88
2018-06-30T19:23:33.606Z,97782.14
2018-06-30T19:26:03.483Z,97783.52
2018-06-30T19:28:33.409Z,97784.36
2018-06-30T19:31:03.306Z,97792.16
2018-06-30T19:33:34.327Z,97795.50
2018-06-30T19:36:03.754Z,97799.07
2018-06-30T19:38:33.610Z,97803.81
2018-06-30T19:41:03.227Z,97801.27
2018-06-30T19:43:33.194Z,97807.91
2018-06-30T19:46:02.563Z,97811.18
2018-06-30T19:48:32.154Z,97813.91
2018-06-30T19:51:01.345Z,97814.50
2018-06-30T19:53:30.670Z,97816.95
2018-06-30T19:56:00.450Z,97819.11
2018-06-30T19:58:30.555Z,97825.92
2018-06-30T20:00:59.622Z,97826.20
2018-06-30T20:03:29.486Z,97829.55
2018-06-30T20:05:59.481Z,97833.56
2018-06-30T20:08:30.083Z,97831.63
2018-06-30T20:11:00.048Z,97832.82
2018-06-30T20:13:29.206Z,97833.38
2018-06-30T20:15:59.327Z,97837.47
2018-06-30T20:18:28.662Z,97836.22
2018-06-30T20:20:57.820Z,97838.37
2018-06-30T20:23:27.050Z,97840.46
2018-06-30T20:25:56.138Z,97844.73
2018-06-30T20:28:25.417Z,97846.87
2018-06-30T20:30:54.866Z,97857.93
2018-06-30T20:33:24.239Z,97861.33
2018-06-30T20:38:50.771Z,97865.20
2018-06-30T20:41:21.002Z,97865.63
2018-06-30T20:43:50.314Z,97863.66
2018-06-30T20:46:20.215Z,97868.80
2018-06-30T20:48:49.834Z,97872.47
2018-06-30T20:51:20.067Z,97876.05
2018-06-30T20:53:49.482Z,97877.41
2018-06-30T20:56:19.585Z,97877.56
2018-06-30T20:58:49.439Z,97876.58
2018-06-30T21:01:19.201Z,97876.48
2018-06-30T21:03:49.943Z,97882.19
2018-06-30T21:06:20.214Z,97889.94
2018-06-30T21:08:49.730Z,97887.86
2018-06-30T21:11:21.094Z,97892.26
2018-06-30T21:13:50.548Z,97895.88
2018-06-30T21:16:19.676Z,97907.28
2018-06-30T21:18:48.803Z,97912.69
2018-06-30T21:21:18.661Z,97902.36
2018-06-30T21:23:47.754Z,97908.36
2018-06-30T21:26:16.912Z,97910.22
2018-06-30T21:28:46.008Z,97908.67
2018-06-30T21:31:15.110Z,97915.68
2018-06-30T21:33:44.371Z,97907.38
2018-06-30T21:36:14.435Z,97910.23
2018-06-30T21:38:43.821Z,97917.70
2018-06-30T21:41:13.657Z,97916.91
2018-06-30T21:43:42.774Z,97923.62
2018-06-30T21:46:11.923Z,97922.86
2018-06-30T21:48:41.238Z,97927.80
2018-06-30T21:51:10.329Z,97921.80
2018-06-30T21:53:40.322Z,97925.16
2018-06-30T21:56:09.413Z,97931.15
2018-06-30T21:58:38.497Z,97928.84
2018-06-30T22:01:14.474Z,97927.00
2018-06-30T22:03:43.992Z,97931.42
2018-06-30T22:06:13.767Z,97927.48
2018-06-30T22:08:43.929Z,97931.55
2018-06-30T22:11:13.191Z,97931.09
2018-06-30T22:13:42.837Z,97930.31
2018-06-30T22:16:11.987Z,97930.52
2018-06-30T22:18:41.151Z,97929.98
2018-06-30T22:21:10.674Z,97929.20
2018-06-30T22:23:39.782Z,97930.20
2018-06-30T22:26:09.343Z,97930.92
2018-06-30T22:28:39.243Z,97926.13
2018-06-30T22:31:08.863Z,97930.70
2018-06-30T22:33:38.438Z,97924.13
2018-06-30T22:36:07.985Z,97926.86
2018-06-30T22:38:37.059Z,97929.84
2018-06-30T22:41:06.140Z,97926.61
2018-06-30T22:43:35.474Z,97926.06
2018-06-30T22:46:05.846Z,97928.71
2018-06-30T22:48:35.277Z,97930.93
2018-06-30T22:51:04.371Z,97930.61
2018-06-30T22:53:33.473Z,97937.69
2018-06-30T22:56:02.602Z,97937.92
2018-06-30T22:58:31.698Z,97937.04
2018-06-30T23:01:00.786Z,97936.29
2018-06-30T23:03:29.951Z,97929.88
2018-06-30T23:05:59.807Z,97939.91
2018-06-30T23:08:28.918Z,97930.16
2018-06-30T23:10:58.510Z,97932.63
2018-06-30T23:13:27.630Z,97937.38
2018-06-30T23:15:56.766Z,97939.09
2018-06-30T23:18:26.087Z,97934.22
2018-06-30T23:20:56.044Z,97933.83
2018-06-30T23:23:25.197Z,97933.44
2018-06-30T23:25:54.311Z,97937.08
2018-06-30T23:28:23.378Z,97939.92
2018-06-30T23:30:52.531Z,97938.56
2018-06-30T23:33:21.822Z,97946.91
2018-06-30T23:35:51.075Z,97947.70
2018-06-30T23:38:20.357Z,97943.77
2018-06-30T23:40:49.979Z,97947.86
2018-06-30T23:43:19.065Z,97952.57
2018-06-30T23:45:48.147Z,97963.48
2018-06-30T23:48:17.295Z,97960.25
2018-06-30T23:50:46.371Z,97957.83
2018-06-30T23:53:15.459Z,97958.49
2018-06-30T23:55:44.573Z,97964.20
2018-06-30T23:58:13.675Z,97972.58
